sensor_id;sensor_type;location;lat;lon;timestamp;temperature;humidity
70593;DHT22;58294;42.988;20.338;2023-11-21T00:01:22;180.10;1945.60
70593;DHT22;58294;42.988;20.338;2023-11-21T00:03:52;180.10;1945.60
70593;DHT22;58294;42.988;20.338;2023-11-21T00:06:20;180.10;1945.60
70593;DHT22;58294;42.988;20.338;2023-11-21T00:08:46;180.10;1920.00
70593;DHT22;58294;42.988;20.338;2023-11-21T00:11:12;180.10;1894.40
70593;DHT22;58294;42.988;20.338;2023-11-21T00:13:38;180.10;1894.40
70593;DHT22;58294;42.988;20.338;2023-11-21T00:16:04;180.10;1920.00
70593;DHT22;58294;42.988;20.338;2023-11-21T00:18:30;180.10;1920.00
70593;DHT22;58294;42.988;20.338;2023-11-21T00:20:56;180.10;1945.60
70593;DHT22;58294;42.988;20.338;2023-11-21T00:23:24;180.10;1920.00
70593;DHT22;58294;42.988;20.338;2023-11-21T00:25:50;180.10;1945.60
70593;DHT22;58294;42.988;20.338;2023-11-21T00:28:16;180.10;1945.60
70593;DHT22;58294;42.988;20.338;2023-11-21T00:30:41;180.10;1920.00
70593;DHT22;58294;42.988;20.338;2023-11-21T00:33:07;180.00;1920.00
70593;DHT22;58294;42.988;20.338;2023-11-21T00:35:33;180.00;1920.00
70593;DHT22;58294;42.988;20.338;2023-11-21T00:37:59;179.90;1920.00
70593;DHT22;58294;42.988;20.338;2023-11-21T00:40:24;179.90;1920.00
70593;DHT22;58294;42.988;20.338;2023-11-21T00:42:50;179.90;1971.20
70593;DHT22;58294;42.988;20.338;2023-11-21T00:45:16;179.90;1945.60
70593;DHT22;58294;42.988;20.338;2023-11-21T00:47:42;179.90;1945.60
70593;DHT22;58294;42.988;20.338;2023-11-21T00:50:08;179.90;1945.60
70593;DHT22;58294;42.988;20.338;2023-11-21T00:52:34;179.90;1945.60
70593;DHT22;58294;42.988;20.338;2023-11-21T00:55:02;179.90;1971.20
70593;DHT22;58294;42.988;20.338;2023-11-21T00:57:29;179.90;1945.60
70593;DHT22;58294;42.988;20.338;2023-11-21T00:59:55;179.90;1945.60
70593;DHT22;58294;42.988;20.338;2023-11-21T01:02:20;179.80;1945.60
70593;DHT22;58294;42.988;20.338;2023-11-21T01:04:46;179.80;1971.20
70593;DHT22;58294;42.988;20.338;2023-11-21T01:07:13;179.80;1971.20
70593;DHT22;58294;42.988;20.338;2023-11-21T01:09:39;179.80;1971.20
70593;DHT22;58294;42.988;20.338;2023-11-21T01:12:04;179.80;1971.20
70593;DHT22;58294;42.988;20.338;2023-11-21T01:14:30;179.80;1971.20
70593;DHT22;58294;42.988;20.338;2023-11-21T01:16:56;179.80;1996.80
70593;DHT22;58294;42.988;20.338;2023-11-21T01:19:22;179.80;1996.80
70593;DHT22;58294;42.988;20.338;2023-11-21T01:21:48;179.80;1996.80
70593;DHT22;58294;42.988;20.338;2023-11-21T01:24:13;179.80;1971.20
70593;DHT22;58294;42.988;20.338;2023-11-21T01:26:39;179.80;1971.20
70593;DHT22;58294;42.988;20.338;2023-11-21T01:29:06;179.80;1996.80
70593;DHT22;58294;42.988;20.338;2023-11-21T01:31:34;179.80;1996.80
70593;DHT22;58294;42.988;20.338;2023-11-21T01:34:00;179.80;1996.80
70593;DHT22;58294;42.988;20.338;2023-11-21T01:36:33;179.70;1971.20
70593;DHT22;58294;42.988;20.338;2023-11-21T01:38:59;179.70;1971.20
70593;DHT22;58294;42.988;20.338;2023-11-21T01:41:26;179.60;1996.80
70593;DHT22;58294;42.988;20.338;2023-11-21T01:43:52;179.60;1996.80
70593;DHT22;58294;42.988;20.338;2023-11-21T01:46:20;179.60;1996.80
70593;DHT22;58294;42.988;20.338;2023-11-21T01:48:47;179.60;1945.60
70593;DHT22;58294;42.988;20.338;2023-11-21T01:51:14;179.50;1945.60
70593;DHT22;58294;42.988;20.338;2023-11-21T01:53:40;179.50;1971.20
70593;DHT22;58294;42.988;20.338;2023-11-21T01:56:07;179.40;1996.80
70593;DHT22;58294;42.988;20.338;2023-11-21T01:58:34;179.40;2022.40
70593;DHT22;58294;42.988;20.338;2023-11-21T02:01:00;179.40;1996.80
70593;DHT22;58294;42.988;20.338;2023-11-21T02:03:25;179.40;1996.80
70593;DHT22;58294;42.988;20.338;2023-11-21T02:05:53;179.40;2022.40
70593;DHT22;58294;42.988;20.338;2023-11-21T02:08:19;179.30;2022.40
70593;DHT22;58294;42.988;20.338;2023-11-21T02:10:45;179.30;1996.80
70593;DHT22;58294;42.988;20.338;2023-11-21T02:13:11;179.30;2022.40
70593;DHT22;58294;42.988;20.338;2023-11-21T02:15:37;179.20;2022.40
70593;DHT22;58294;42.988;20.338;2023-11-21T02:18:04;179.20;2022.40
70593;DHT22;58294;42.988;20.338;2023-11-21T02:20:32;154.50;2022.40
70593;DHT22;58294;42.988;20.338;2023-11-21T02:23:00;154.50;2022.40
70593;DHT22;58294;42.988;20.338;2023-11-21T02:25:31;154.40;2022.40
70593;DHT22;58294;42.988;20.338;2023-11-21T02:27:59;154.40;2048.00
70593;DHT22;58294;42.988;20.338;2023-11-21T02:30:26;154.40;2048.00
70593;DHT22;58294;42.988;20.338;2023-11-21T02:32:53;154.40;2048.00
70593;DHT22;58294;42.988;20.338;2023-11-21T02:35:22;154.40;2073.60
70593;DHT22;58294;42.988;20.338;2023-11-21T02:37:48;154.40;2073.60
70593;DHT22;58294;42.988;20.338;2023-11-21T02:40:14;154.40;2073.60
70593;DHT22;58294;42.988;20.338;2023-11-21T02:42:49;154.40;2073.60
70593;DHT22;58294;42.988;20.338;2023-11-21T02:45:20;154.30;2048.00
70593;DHT22;58294;42.988;20.338;2023-11-21T02:47:49;154.30;2073.60
70593;DHT22;58294;42.988;20.338;2023-11-21T02:50:15;154.30;2099.20
70593;DHT22;58294;42.988;20.338;2023-11-21T02:52:41;154.30;2073.60
70593;DHT22;58294;42.988;20.338;2023-11-21T02:55:07;154.30;2099.20
70593;DHT22;58294;42.988;20.338;2023-11-21T02:57:33;154.30;2073.60
70593;DHT22;58294;42.988;20.338;2023-11-21T02:59:59;154.30;2073.60
70593;DHT22;58294;42.988;20.338;2023-11-21T03:02:25;154.30;2073.60
70593;DHT22;58294;42.988;20.338;2023-11-21T03:04:51;154.30;2099.20
70593;DHT22;58294;42.988;20.338;2023-11-21T03:07:17;154.30;2099.20
70593;DHT22;58294;42.988;20.338;2023-11-21T03:09:47;154.30;2099.20
70593;DHT22;58294;42.988;20.338;2023-11-21T03:12:13;154.40;2073.60
70593;DHT22;58294;42.988;20.338;2023-11-21T03:14:39;154.30;2073.60
70593;DHT22;58294;42.988;20.338;2023-11-21T03:17:05;154.30;2073.60
70593;DHT22;58294;42.988;20.338;2023-11-21T03:19:32;154.30;2099.20
70593;DHT22;58294;42.988;20.338;2023-11-21T03:21:57;154.30;2073.60
70593;DHT22;58294;42.988;20.338;2023-11-21T03:24:24;154.30;2099.20
70593;DHT22;58294;42.988;20.338;2023-11-21T03:26:50;154.30;2048.00
70593;DHT22;58294;42.988;20.338;2023-11-21T03:29:16;154.30;2048.00
70593;DHT22;58294;42.988;20.338;2023-11-21T03:31:42;154.20;2073.60
70593;DHT22;58294;42.988;20.338;2023-11-21T03:34:14;154.20;2073.60
70593;DHT22;58294;42.988;20.338;2023-11-21T03:36:40;154.20;2073.60
70593;DHT22;58294;42.988;20.338;2023-11-21T03:39:05;154.20;2073.60
70593;DHT22;58294;42.988;20.338;2023-11-21T03:41:32;154.20;2048.00
70593;DHT22;58294;42.988;20.338;2023-11-21T03:43:59;154.20;2048.00
70593;DHT22;58294;42.988;20.338;2023-11-21T03:46:25;154.10;2073.60
70593;DHT22;58294;42.988;20.338;2023-11-21T03:48:51;154.10;2099.20
70593;DHT22;58294;42.988;20.338;2023-11-21T03:51:17;154.10;2099.20
70593;DHT22;58294;42.988;20.338;2023-11-21T03:53:42;154.20;2124.80
70593;DHT22;58294;42.988;20.338;2023-11-21T03:56:08;154.20;2099.20
70593;DHT22;58294;42.988;20.338;2023-11-21T03:58:35;154.20;2099.20
70593;DHT22;58294;42.988;20.338;2023-11-21T04:01:00;154.30;2124.80
70593;DHT22;58294;42.988;20.338;2023-11-21T04:03:27;154.30;2099.20
70593;DHT22;58294;42.988;20.338;2023-11-21T04:05:52;154.30;2099.20
70593;DHT22;58294;42.988;20.338;2023-11-21T04:08:18;154.40;2099.20
70593;DHT22;58294;42.988;20.338;2023-11-21T04:10:44;154.40;2099.20
70593;DHT22;58294;42.988;20.338;2023-11-21T04:13:10;154.40;2099.20
70593;DHT22;58294;42.988;20.338;2023-11-21T04:15:36;154.40;2124.80
70593;DHT22;58294;42.988;20.338;2023-11-21T04:18:01;154.50;2099.20
70593;DHT22;58294;42.988;20.338;2023-11-21T04:20:27;154.50;2124.80
70593;DHT22;58294;42.988;20.338;2023-11-21T04:22:53;179.20;2124.80
70593;DHT22;58294;42.988;20.338;2023-11-21T04:25:19;179.20;2124.80
70593;DHT22;58294;42.988;20.338;2023-11-21T04:27:45;179.20;2099.20
70593;DHT22;58294;42.988;20.338;2023-11-21T04:30:12;179.30;2099.20
70593;DHT22;58294;42.988;20.338;2023-11-21T04:32:38;179.30;2048.00
70593;DHT22;58294;42.988;20.338;2023-11-21T04:35:10;179.30;2073.60
70593;DHT22;58294;42.988;20.338;2023-11-21T04:37:36;179.30;2073.60
70593;DHT22;58294;42.988;20.338;2023-11-21T04:40:03;179.30;2073.60
70593;DHT22;58294;42.988;20.338;2023-11-21T04:42:34;179.30;2073.60
70593;DHT22;58294;42.988;20.338;2023-11-21T04:45:01;179.40;2073.60
70593;DHT22;58294;42.988;20.338;2023-11-21T04:47:27;179.40;2073.60
70593;DHT22;58294;42.988;20.338;2023-11-21T04:49:53;179.50;2099.20
70593;DHT22;58294;42.988;20.338;2023-11-21T04:52:18;179.60;2099.20
70593;DHT22;58294;42.988;20.338;2023-11-21T04:54:45;179.60;2073.60
70593;DHT22;58294;42.988;20.338;2023-11-21T04:57:11;179.60;2048.00
70593;DHT22;58294;42.988;20.338;2023-11-21T04:59:37;179.60;2048.00
70593;DHT22;58294;42.988;20.338;2023-11-21T05:02:03;179.60;2022.40
70593;DHT22;58294;42.988;20.338;2023-11-21T05:04:30;179.60;2022.40
70593;DHT22;58294;42.988;20.338;2023-11-21T05:06:56;179.70;2048.00
70593;DHT22;58294;42.988;20.338;2023-11-21T05:09:22;179.70;2048.00
70593;DHT22;58294;42.988;20.338;2023-11-21T05:11:48;179.70;2048.00
70593;DHT22;58294;42.988;20.338;2023-11-21T05:14:13;179.70;2022.40
70593;DHT22;58294;42.988;20.338;2023-11-21T05:16:39;179.70;2048.00
70593;DHT22;58294;42.988;20.338;2023-11-21T05:19:05;179.70;2022.40
70593;DHT22;58294;42.988;20.338;2023-11-21T05:21:33;179.70;1996.80
70593;DHT22;58294;42.988;20.338;2023-11-21T05:23:59;179.70;2022.40
70593;DHT22;58294;42.988;20.338;2023-11-21T05:26:25;179.70;2022.40
70593;DHT22;58294;42.988;20.338;2023-11-21T05:28:51;179.70;2048.00
70593;DHT22;58294;42.988;20.338;2023-11-21T05:31:17;179.70;2073.60
70593;DHT22;58294;42.988;20.338;2023-11-21T05:33:42;179.70;2099.20
70593;DHT22;58294;42.988;20.338;2023-11-21T05:36:09;179.80;2099.20
70593;DHT22;58294;42.988;20.338;2023-11-21T05:38:36;179.80;2048.00
70593;DHT22;58294;42.988;20.338;2023-11-21T05:41:02;179.80;2048.00
70593;DHT22;58294;42.988;20.338;2023-11-21T05:43:29;179.90;2048.00
70593;DHT22;58294;42.988;20.338;2023-11-21T05:45:56;179.90;2073.60
70593;DHT22;58294;42.988;20.338;2023-11-21T05:48:22;179.90;2073.60
70593;DHT22;58294;42.988;20.338;2023-11-21T05:50:49;180.00;2048.00
70593;DHT22;58294;42.988;20.338;2023-11-21T05:53:15;180.00;2073.60
70593;DHT22;58294;42.988;20.338;2023-11-21T05:55:42;180.00;2073.60
70593;DHT22;58294;42.988;20.338;2023-11-21T05:58:08;180.00;2099.20
70593;DHT22;58294;42.988;20.338;2023-11-21T06:00:34;180.10;2073.60
70593;DHT22;58294;42.988;20.338;2023-11-21T06:03:00;180.10;2073.60
70593;DHT22;58294;42.988;20.338;2023-11-21T06:05:26;204.80;2073.60
70593;DHT22;58294;42.988;20.338;2023-11-21T06:07:53;204.80;2073.60
70593;DHT22;58294;42.988;20.338;2023-11-21T06:10:20;204.80;2048.00
70593;DHT22;58294;42.988;20.338;2023-11-21T06:12:46;204.80;2048.00
70593;DHT22;58294;42.988;20.338;2023-11-21T06:15:12;204.90;2073.60
70593;DHT22;58294;42.988;20.338;2023-11-21T06:17:42;204.90;2048.00
70593;DHT22;58294;42.988;20.338;2023-11-21T06:20:10;204.90;2048.00
70593;DHT22;58294;42.988;20.338;2023-11-21T06:22:45;204.90;2022.40
70593;DHT22;58294;42.988;20.338;2023-11-21T06:25:12;204.90;2022.40
70593;DHT22;58294;42.988;20.338;2023-11-21T06:27:45;204.90;2022.40
70593;DHT22;58294;42.988;20.338;2023-11-21T06:30:13;204.90;2048.00
70593;DHT22;58294;42.988;20.338;2023-11-21T06:32:41;204.90;2048.00
70593;DHT22;58294;42.988;20.338;2023-11-21T06:35:08;204.90;2048.00
70593;DHT22;58294;42.988;20.338;2023-11-21T06:37:35;204.90;2048.00
70593;DHT22;58294;42.988;20.338;2023-11-21T06:40:02;204.90;2048.00
70593;DHT22;58294;42.988;20.338;2023-11-21T06:42:29;204.90;2048.00
70593;DHT22;58294;42.988;20.338;2023-11-21T06:44:55;205.00;2048.00
70593;DHT22;58294;42.988;20.338;2023-11-21T06:47:25;205.00;2048.00
70593;DHT22;58294;42.988;20.338;2023-11-21T06:49:52;205.00;2073.60
70593;DHT22;58294;42.988;20.338;2023-11-21T06:52:18;205.10;2048.00
70593;DHT22;58294;42.988;20.338;2023-11-21T06:54:44;205.10;2073.60
70593;DHT22;58294;42.988;20.338;2023-11-21T06:57:11;205.20;2073.60
70593;DHT22;58294;42.988;20.338;2023-11-21T06:59:37;205.30;2073.60
70593;DHT22;58294;42.988;20.338;2023-11-21T07:02:03;205.30;2073.60
70593;DHT22;58294;42.988;20.338;2023-11-21T07:04:32;205.40;2073.60
70593;DHT22;58294;42.988;20.338;2023-11-21T07:06:59;205.40;2048.00
70593;DHT22;58294;42.988;20.338;2023-11-21T07:09:26;205.40;2048.00
70593;DHT22;58294;42.988;20.338;2023-11-21T07:11:52;205.50;2048.00
70593;DHT22;58294;42.988;20.338;2023-11-21T07:14:18;205.50;2048.00
70593;DHT22;58294;42.988;20.338;2023-11-21T07:16:45;205.50;2048.00
70593;DHT22;58294;42.988;20.338;2023-11-21T07:19:11;205.60;2048.00
70593;DHT22;58294;42.988;20.338;2023-11-21T07:21:38;205.60;2022.40
70593;DHT22;58294;42.988;20.338;2023-11-21T07:24:05;205.60;2048.00
70593;DHT22;58294;42.988;20.338;2023-11-21T07:26:32;205.70;2048.00
70593;DHT22;58294;42.988;20.338;2023-11-21T07:28:59;205.70;2048.00
70593;DHT22;58294;42.988;20.338;2023-11-21T07:31:26;230.40;1996.80
70593;DHT22;58294;42.988;20.338;2023-11-21T07:33:52;230.40;1996.80
70593;DHT22;58294;42.988;20.338;2023-11-21T07:36:19;230.40;2022.40
70593;DHT22;58294;42.988;20.338;2023-11-21T07:38:46;230.50;2022.40
70593;DHT22;58294;42.988;20.338;2023-11-21T07:41:13;230.50;2022.40
70593;DHT22;58294;42.988;20.338;2023-11-21T07:43:43;230.50;1996.80
70593;DHT22;58294;42.988;20.338;2023-11-21T07:46:10;230.60;1996.80
70593;DHT22;58294;42.988;20.338;2023-11-21T07:48:38;230.60;1971.20
70593;DHT22;58294;42.988;20.338;2023-11-21T07:51:04;230.60;1996.80
70593;DHT22;58294;42.988;20.338;2023-11-21T07:53:30;230.60;1996.80
70593;DHT22;58294;42.988;20.338;2023-11-21T07:56:04;230.70;2022.40
70593;DHT22;58294;42.988;20.338;2023-11-21T07:58:30;230.70;1945.60
70593;DHT22;58294;42.988;20.338;2023-11-21T08:00:56;230.70;1996.80
70593;DHT22;58294;42.988;20.338;2023-11-21T08:03:22;230.70;1971.20
70593;DHT22;58294;42.988;20.338;2023-11-21T08:05:48;230.70;1996.80
70593;DHT22;58294;42.988;20.338;2023-11-21T08:08:13;230.70;1996.80
70593;DHT22;58294;42.988;20.338;2023-11-21T08:10:39;230.80;1996.80
70593;DHT22;58294;42.988;20.338;2023-11-21T08:13:05;230.80;1971.20
70593;DHT22;58294;42.988;20.338;2023-11-21T08:15:36;230.80;1996.80
70593;DHT22;58294;42.988;20.338;2023-11-21T08:18:02;230.80;1996.80
70593;DHT22;58294;42.988;20.338;2023-11-21T08:20:28;230.80;2022.40
70593;DHT22;58294;42.988;20.338;2023-11-21T08:22:54;230.90;1996.80
70593;DHT22;58294;42.988;20.338;2023-11-21T08:25:22;230.90;1945.60
70593;DHT22;58294;42.988;20.338;2023-11-21T08:27:48;230.80;1945.60
70593;DHT22;58294;42.988;20.338;2023-11-21T08:30:14;230.80;1996.80
70593;DHT22;58294;42.988;20.338;2023-11-21T08:32:42;230.90;2022.40
70593;DHT22;58294;42.988;20.338;2023-11-21T08:35:08;230.90;2022.40
70593;DHT22;58294;42.988;20.338;2023-11-21T08:37:34;230.90;2022.40
70593;DHT22;58294;42.988;20.338;2023-11-21T08:40:05;231.00;2022.40
70593;DHT22;58294;42.988;20.338;2023-11-21T08:42:37;231.00;2022.40
70593;DHT22;58294;42.988;20.338;2023-11-21T08:45:04;231.00;2022.40
70593;DHT22;58294;42.988;20.338;2023-11-21T08:47:34;231.00;2048.00
70593;DHT22;58294;42.988;20.338;2023-11-21T08:50:02;231.00;2048.00
70593;DHT22;58294;42.988;20.338;2023-11-21T08:52:28;231.10;2048.00
70593;DHT22;58294;42.988;20.338;2023-11-21T08:54:53;231.10;2048.00
70593;DHT22;58294;42.988;20.338;2023-11-21T08:57:23;231.20;2048.00
70593;DHT22;58294;42.988;20.338;2023-11-21T08:59:48;231.30;2022.40
70593;DHT22;58294;42.988;20.338;2023-11-21T09:02:14;231.30;2022.40
70593;DHT22;58294;42.988;20.338;2023-11-21T09:04:40;231.30;2022.40
70593;DHT22;58294;42.988;20.338;2023-11-21T09:07:06;231.30;1996.80
70593;DHT22;58294;42.988;20.338;2023-11-21T09:09:31;231.30;1996.80
70593;DHT22;58294;42.988;20.338;2023-11-21T09:11:57;231.30;1996.80
70593;DHT22;58294;42.988;20.338;2023-11-21T09:14:23;231.30;2022.40
70593;DHT22;58294;42.988;20.338;2023-11-21T09:16:50;231.30;1996.80
70593;DHT22;58294;42.988;20.338;2023-11-21T09:19:16;231.30;2022.40
70593;DHT22;58294;42.988;20.338;2023-11-21T09:21:42;231.30;2022.40
70593;DHT22;58294;42.988;20.338;2023-11-21T09:24:08;231.30;2048.00
70593;DHT22;58294;42.988;20.338;2023-11-21T09:26:34;231.30;2048.00
70593;DHT22;58294;42.988;20.338;2023-11-21T09:29:00;256.00;2022.40
70593;DHT22;58294;42.988;20.338;2023-11-21T09:31:27;256.00;2022.40
70593;DHT22;58294;42.988;20.338;2023-11-21T09:33:53;256.00;2048.00
70593;DHT22;58294;42.988;20.338;2023-11-21T09:36:19;256.00;2048.00
70593;DHT22;58294;42.988;20.338;2023-11-21T09:38:47;256.10;2073.60
70593;DHT22;58294;42.988;20.338;2023-11-21T09:41:40;256.20;2073.60
70593;DHT22;58294;42.988;20.338;2023-11-21T09:44:10;256.30;2022.40
70593;DHT22;58294;42.988;20.338;2023-11-21T09:46:41;256.30;2022.40
70593;DHT22;58294;42.988;20.338;2023-11-21T09:49:09;256.20;1996.80
70593;DHT22;58294;42.988;20.338;2023-11-21T09:51:43;256.30;2048.00
70593;DHT22;58294;42.988;20.338;2023-11-21T09:54:10;256.30;1996.80
70593;DHT22;58294;42.988;20.338;2023-11-21T09:56:39;256.30;2022.40
70593;DHT22;58294;42.988;20.338;2023-11-21T09:59:06;256.30;2022.40
70593;DHT22;58294;42.988;20.338;2023-11-21T10:01:36;256.40;2048.00
70593;DHT22;58294;42.988;20.338;2023-11-21T10:04:03;256.30;2048.00
70593;DHT22;58294;42.988;20.338;2023-11-21T10:06:31;256.40;2048.00
70593;DHT22;58294;42.988;20.338;2023-11-21T10:08:59;256.50;2048.00
70593;DHT22;58294;42.988;20.338;2023-11-21T10:11:27;256.60;2073.60
70593;DHT22;58294;42.988;20.338;2023-11-21T10:14:00;256.70;2048.00
70593;DHT22;58294;42.988;20.338;2023-11-21T10:16:26;256.70;2048.00
70593;DHT22;58294;42.988;20.338;2023-11-21T10:18:53;256.70;2022.40
70593;DHT22;58294;42.988;20.338;2023-11-21T10:21:22;256.70;2022.40
70593;DHT22;58294;42.988;20.338;2023-11-21T10:23:50;256.70;2048.00
70593;DHT22;58294;42.988;20.338;2023-11-21T10:26:18;256.80;2022.40
70593;DHT22;58294;42.988;20.338;2023-11-21T10:28:59;256.90;2048.00
70593;DHT22;58294;42.988;20.338;2023-11-21T10:31:28;256.90;1996.80
70593;DHT22;58294;42.988;20.338;2023-11-21T10:33:54;281.60;2022.40
70593;DHT22;58294;42.988;20.338;2023-11-21T10:36:27;281.60;2048.00
70593;DHT22;58294;42.988;20.338;2023-11-21T10:38:53;281.60;2022.40
70593;DHT22;58294;42.988;20.338;2023-11-21T10:41:20;281.60;1996.80
70593;DHT22;58294;42.988;20.338;2023-11-21T10:43:46;281.60;1996.80
70593;DHT22;58294;42.988;20.338;2023-11-21T10:46:14;281.60;2022.40
70593;DHT22;58294;42.988;20.338;2023-11-21T10:48:42;281.70;2048.00
70593;DHT22;58294;42.988;20.338;2023-11-21T10:51:08;281.70;2073.60
70593;DHT22;58294;42.988;20.338;2023-11-21T10:53:42;281.70;2048.00
70593;DHT22;58294;42.988;20.338;2023-11-21T10:56:09;281.70;1996.80
70593;DHT22;58294;42.988;20.338;2023-11-21T10:58:38;281.70;2022.40
70593;DHT22;58294;42.988;20.338;2023-11-21T11:01:06;281.80;2048.00
70593;DHT22;58294;42.988;20.338;2023-11-21T11:03:32;281.80;2022.40
70593;DHT22;58294;42.988;20.338;2023-11-21T11:06:00;281.90;2048.00
70593;DHT22;58294;42.988;20.338;2023-11-21T11:08:26;282.00;2048.00
70593;DHT22;58294;42.988;20.338;2023-11-21T11:10:53;282.00;2022.40
70593;DHT22;58294;42.988;20.338;2023-11-21T11:13:19;282.00;2022.40
70593;DHT22;58294;42.988;20.338;2023-11-21T11:15:47;282.00;1996.80
70593;DHT22;58294;42.988;20.338;2023-11-21T11:18:15;282.00;1996.80
70593;DHT22;58294;42.988;20.338;2023-11-21T11:20:43;282.00;2022.40
70593;DHT22;58294;42.988;20.338;2023-11-21T11:29:43;282.10;2022.40
70593;DHT22;58294;42.988;20.338;2023-11-21T11:34:29;282.30;2099.20
70593;DHT22;58294;42.988;20.338;2023-11-21T11:37:01;282.40;2022.40
70593;DHT22;58294;42.988;20.338;2023-11-21T11:42:03;282.40;2022.40
70593;DHT22;58294;42.988;20.338;2023-11-21T11:50:18;282.40;1996.80
70593;DHT22;58294;42.988;20.338;2023-11-21T11:52:47;282.40;2048.00
70593;DHT22;58294;42.988;20.338;2023-11-21T11:55:15;282.50;2073.60
70593;DHT22;58294;42.988;20.338;2023-11-21T11:57:49;282.50;2073.60
70593;DHT22;58294;42.988;20.338;2023-11-21T12:03:00;307.20;2099.20
70593;DHT22;58294;42.988;20.338;2023-11-21T12:05:30;307.20;2073.60
70593;DHT22;58294;42.988;20.338;2023-11-21T12:08:00;307.20;2124.80
70593;DHT22;58294;42.988;20.338;2023-11-21T12:10:33;307.20;2099.20
70593;DHT22;58294;42.988;20.338;2023-11-21T12:13:11;307.20;2073.60
70593;DHT22;58294;42.988;20.338;2023-11-21T12:15:39;307.20;2048.00
70593;DHT22;58294;42.988;20.338;2023-11-21T12:18:07;307.20;2048.00
70593;DHT22;58294;42.988;20.338;2023-11-21T12:20:33;307.20;2073.60
70593;DHT22;58294;42.988;20.338;2023-11-21T12:23:04;307.20;2099.20
70593;DHT22;58294;42.988;20.338;2023-11-21T12:25:31;307.20;2099.20
70593;DHT22;58294;42.988;20.338;2023-11-21T12:27:59;307.20;2099.20
70593;DHT22;58294;42.988;20.338;2023-11-21T12:30:26;307.20;2124.80
70593;DHT22;58294;42.988;20.338;2023-11-21T12:32:58;307.30;2099.20
70593;DHT22;58294;42.988;20.338;2023-11-21T12:35:33;307.30;2124.80
70593;DHT22;58294;42.988;20.338;2023-11-21T12:38:01;307.40;2124.80
70593;DHT22;58294;42.988;20.338;2023-11-21T12:40:32;307.40;2124.80
70593;DHT22;58294;42.988;20.338;2023-11-21T12:42:59;307.40;2048.00
70593;DHT22;58294;42.988;20.338;2023-11-21T12:45:27;307.40;2048.00
70593;DHT22;58294;42.988;20.338;2023-11-21T12:47:55;307.40;2073.60
70593;DHT22;58294;42.988;20.338;2023-11-21T12:50:28;307.30;2099.20
70593;DHT22;58294;42.988;20.338;2023-11-21T12:52:58;307.40;2124.80
70593;DHT22;58294;42.988;20.338;2023-11-21T12:55:25;307.40;2150.40
70593;DHT22;58294;42.988;20.338;2023-11-21T12:57:55;307.50;2124.80
70593;DHT22;58294;42.988;20.338;2023-11-21T13:00:35;307.50;2099.20
70593;DHT22;58294;42.988;20.338;2023-11-21T13:03:04;307.50;2048.00
70593;DHT22;58294;42.988;20.338;2023-11-21T13:05:37;307.40;2048.00
70593;DHT22;58294;42.988;20.338;2023-11-21T13:08:10;307.40;2099.20
70593;DHT22;58294;42.988;20.338;2023-11-21T13:10:57;307.40;2150.40
70593;DHT22;58294;42.988;20.338;2023-11-21T13:13:24;307.40;2099.20
70593;DHT22;58294;42.988;20.338;2023-11-21T13:15:53;307.40;2099.20
70593;DHT22;58294;42.988;20.338;2023-11-21T13:18:25;307.40;2124.80
70593;DHT22;58294;42.988;20.338;2023-11-21T13:20:58;307.40;2150.40
70593;DHT22;58294;42.988;20.338;2023-11-21T13:23:25;307.40;2176.00
70593;DHT22;58294;42.988;20.338;2023-11-21T13:25:52;307.50;2150.40
70593;DHT22;58294;42.988;20.338;2023-11-21T13:28:18;307.50;2150.40
70593;DHT22;58294;42.988;20.338;2023-11-21T13:30:49;307.50;2124.80
70593;DHT22;58294;42.988;20.338;2023-11-21T13:33:18;307.50;2124.80
70593;DHT22;58294;42.988;20.338;2023-11-21T13:35:58;307.40;2124.80
70593;DHT22;58294;42.988;20.338;2023-11-21T13:38:26;307.40;2150.40
70593;DHT22;58294;42.988;20.338;2023-11-21T13:40:57;307.40;2150.40
70593;DHT22;58294;42.988;20.338;2023-11-21T13:43:24;307.40;2176.00
70593;DHT22;58294;42.988;20.338;2023-11-21T13:45:54;307.40;2124.80
70593;DHT22;58294;42.988;20.338;2023-11-21T13:48:38;307.40;2150.40
70593;DHT22;58294;42.988;20.338;2023-11-21T13:51:12;307.40;2201.60
70593;DHT22;58294;42.988;20.338;2023-11-21T13:53:44;307.40;2150.40
70593;DHT22;58294;42.988;20.338;2023-11-21T13:56:11;307.40;2150.40
70593;DHT22;58294;42.988;20.338;2023-11-21T13:58:38;307.40;2201.60
70593;DHT22;58294;42.988;20.338;2023-11-21T14:01:13;307.40;2227.20
70593;DHT22;58294;42.988;20.338;2023-11-21T14:04:01;307.40;2227.20
70593;DHT22;58294;42.988;20.338;2023-11-21T14:06:55;307.40;2201.60
70593;DHT22;58294;42.988;20.338;2023-11-21T14:09:22;307.40;2176.00
70593;DHT22;58294;42.988;20.338;2023-11-21T14:11:58;307.40;2176.00
70593;DHT22;58294;42.988;20.338;2023-11-21T14:14:27;307.40;2201.60
70593;DHT22;58294;42.988;20.338;2023-11-21T14:16:56;307.40;2201.60
70593;DHT22;58294;42.988;20.338;2023-11-21T14:19:22;307.40;2201.60
70593;DHT22;58294;42.988;20.338;2023-11-21T14:21:53;307.40;2201.60
70593;DHT22;58294;42.988;20.338;2023-11-21T14:24:19;307.40;2227.20
70593;DHT22;58294;42.988;20.338;2023-11-21T14:26:46;307.40;2227.20
70593;DHT22;58294;42.988;20.338;2023-11-21T14:29:13;307.40;2227.20
70593;DHT22;58294;42.988;20.338;2023-11-21T14:31:45;307.40;2201.60
70593;DHT22;58294;42.988;20.338;2023-11-21T14:34:11;307.40;2201.60
70593;DHT22;58294;42.988;20.338;2023-11-21T14:36:40;307.30;2201.60
70593;DHT22;58294;42.988;20.338;2023-11-21T14:39:06;307.20;2150.40
70593;DHT22;58294;42.988;20.338;2023-11-21T14:41:46;307.20;2176.00
70593;DHT22;58294;42.988;20.338;2023-11-21T14:44:11;282.50;2201.60
70593;DHT22;58294;42.988;20.338;2023-11-21T14:46:40;282.40;2201.60
70593;DHT22;58294;42.988;20.338;2023-11-21T14:49:09;282.40;2227.20
70593;DHT22;58294;42.988;20.338;2023-11-21T14:51:52;282.30;2278.40
70593;DHT22;58294;42.988;20.338;2023-11-21T14:54:44;282.30;2278.40
70593;DHT22;58294;42.988;20.338;2023-11-21T14:57:13;282.30;2278.40
70593;DHT22;58294;42.988;20.338;2023-11-21T14:59:46;282.30;2278.40